Saint Onge, South Dakota
Current Conditions -  °F | °C
As of 2:15 PM on Friday 28 Nov 2014 (Local Time) from KSPF Reporting Station
Clear Clear  
Wind Chill: 61°   Ceiling: Unl
Heat Index: 61°   Visibility: 10mi
Dew Point: 25°   Wind: 16mph
Humidity: 25%   Direction: 240°WSW
Pressure: 29.6"   Gusts: 21mph
Location:  44.55°N, 103.72°W
Report Text: KSPF 282115Z AUTO 24014G18KT 10SM CLR 16/M04 A2960 RMK AO2
Loading
Personal Weather Stations






























Interactive Weather Map New forecast layout! Learn more

10-Day Weather Forecast

Advertisements
Track Severe Weather on mobile